Danville, Washington
Current Conditions -  °F | °C
As of 3:53 AM on Friday 21 Nov 2014 (Local Time) from KOMK Reporting Station
Overcast Overcast  
Wind Chill: -1°   Ceiling: 2800
Heat Index: -1°   Visibility: 7mi
Dew Point: -4°   Wind: 0mph
Humidity: 82%   Direction: NA
Pressure: 29.98"   Gusts: NA
Location:  48.99°N, 118.51°W
Report Text: KOMK 211153Z AUTO 00000KT 7SM OVC028 M01/M04 A2998 RMK AO2 SLP164 T10111039 10000 21022 55006
Loading
Personal Weather Stations






























Interactive Weather Map New forecast layout! Learn more

10-Day Weather Forecast

Advertisements
Track Severe Weather on mobile